createdAt,value
2023-02-28T00:01:23.246Z,103016.63
2023-02-28T00:03:50.214Z,103011.28
2023-02-28T00:51:44.267Z,103010.59
2023-02-28T00:54:11.085Z,103010.56
2023-02-28T00:56:37.776Z,103014.75
2023-02-28T00:59:04.460Z,103016.97
2023-02-28T01:01:31.627Z,103019.50
2023-02-28T01:03:58.645Z,103025.94
2023-02-28T01:06:25.386Z,103018.50
2023-02-28T01:08:52.059Z,103023.28
2023-02-28T01:11:19.619Z,103020.72
2023-02-28T01:13:47.392Z,103024.38
2023-02-28T01:16:14.599Z,103020.66
2023-02-28T01:18:41.632Z,103021.75
2023-02-28T01:21:10.516Z,103020.28
2023-02-28T01:23:37.382Z,103020.78
2023-02-28T01:26:06.704Z,103024.16
2023-02-28T01:28:33.380Z,103018.47
2023-02-28T01:31:00.126Z,103026.00
2023-02-28T01:33:27.216Z,103027.94
2023-02-28T01:35:57.006Z,103025.63
2023-02-28T01:38:23.837Z,103027.25
2023-02-28T01:40:50.885Z,103028.97
2023-02-28T01:43:21.460Z,103028.38
2023-02-28T01:45:48.210Z,103026.03
2023-02-28T01:48:14.974Z,103019.00
2023-02-28T01:50:43.380Z,103016.19
2023-02-28T01:53:13.922Z,103021.75
2023-02-28T01:55:41.521Z,103023.38
2023-02-28T01:58:10.195Z,103026.09
2023-02-28T02:00:37.068Z,103028.91
2023-02-28T02:03:07.632Z,103022.34
2023-02-28T02:05:35.424Z,103032.22
2023-02-28T02:08:04.821Z,103025.69
2023-02-28T02:10:32.918Z,103025.34
2023-02-28T02:13:02.793Z,103029.78
2023-02-28T02:15:33.685Z,103028.38
2023-02-28T02:18:05.226Z,103029.47
2023-02-28T02:20:36.265Z,103030.50
2023-02-28T02:23:13.162Z,103022.69
2023-02-28T02:25:43.295Z,103026.34
2023-02-28T02:28:10.728Z,103022.91
2023-02-28T02:30:40.715Z,103022.59
2023-02-28T02:33:08.286Z,103030.47
2023-02-28T02:35:38.501Z,103023.63
2023-02-28T02:38:06.011Z,103031.72
2023-02-28T02:40:36.053Z,103028.84
2023-02-28T02:43:06.408Z,103027.66
2023-02-28T02:45:37.259Z,103035.53
2023-02-28T02:48:06.984Z,103020.28
2023-02-28T02:50:38.232Z,103029.22
2023-02-28T02:53:06.468Z,103024.38
2023-02-28T02:55:37.976Z,103026.84
2023-02-28T02:58:06.820Z,103028.22
2023-02-28T03:00:37.002Z,103019.44
2023-02-28T03:03:04.045Z,103020.81
2023-02-28T03:05:35.795Z,103021.06
2023-02-28T03:08:05.230Z,103012.31
2023-02-28T03:10:34.288Z,103015.13
2023-02-28T03:13:07.253Z,103016.50
2023-02-28T03:15:40.343Z,103017.56
2023-02-28T03:18:10.361Z,103020.28
2023-02-28T03:20:40.179Z,103017.16
2023-02-28T03:23:10.014Z,103017.41
2023-02-28T03:25:39.879Z,103012.03
2023-02-28T03:28:06.989Z,103014.25
2023-02-28T03:30:38.106Z,103027.09
2023-02-28T03:33:10.096Z,103024.53
2023-02-28T03:35:41.133Z,103031.25
2023-02-28T03:38:15.329Z,103025.06
2023-02-28T03:40:44.274Z,103024.47
2023-02-28T03:43:13.433Z,103028.63
2023-02-28T03:45:42.417Z,103029.13
2023-02-28T03:48:12.423Z,103026.59
2023-02-28T03:50:42.291Z,103028.78
2023-02-28T03:53:12.554Z,103038.56
2023-02-28T03:55:42.590Z,103045.53
2023-02-28T03:58:17.456Z,103044.66
2023-02-28T04:00:47.458Z,103046.03
2023-02-28T04:03:14.663Z,103037.00
2023-02-28T04:05:48.998Z,103038.38
2023-02-28T04:08:15.782Z,103033.00
2023-02-28T04:10:46.530Z,103035.25
2023-02-28T04:13:13.304Z,103042.19
2023-02-28T04:15:40.038Z,103041.34
2023-02-28T04:18:07.064Z,103039.91
2023-02-28T04:20:33.823Z,103045.50
2023-02-28T04:23:00.672Z,103040.41
2023-02-28T04:25:27.478Z,103052.72
2023-02-28T04:27:54.266Z,103052.38
2023-02-28T04:30:21.466Z,103045.94
2023-02-28T04:32:50.599Z,103051.78
2023-02-28T04:35:17.786Z,103051.19
2023-02-28T04:37:44.646Z,103046.91
2023-02-28T04:40:11.926Z,103049.97
2023-02-28T04:42:38.665Z,103055.00
2023-02-28T04:45:05.980Z,103048.78
2023-02-28T04:47:32.829Z,103049.28
2023-02-28T04:49:59.698Z,103049.28
2023-02-28T04:52:28.282Z,103051.75
2023-02-28T04:54:55.054Z,103060.38
2023-02-28T04:57:21.787Z,103057.81
2023-02-28T04:59:48.491Z,103060.88
2023-02-28T05:02:15.359Z,103059.41
2023-02-28T05:04:42.098Z,103054.06
2023-02-28T05:07:08.865Z,103055.16
2023-02-28T05:09:35.862Z,103057.34
2023-02-28T05:12:04.957Z,103061.50
2023-02-28T05:14:34.027Z,103061.75
2023-02-28T05:17:00.805Z,103069.81
2023-02-28T05:19:30.709Z,103069.81
2023-02-28T05:21:57.474Z,103063.59
2023-02-28T05:24:24.813Z,103061.03
2023-02-28T05:26:54.832Z,103066.66
2023-02-28T05:29:21.785Z,103070.66
2023-02-28T05:31:50.950Z,103065.75
2023-02-28T05:34:17.956Z,103069.28
2023-02-28T05:36:45.148Z,103077.81
2023-02-28T05:39:14.263Z,103079.59
2023-02-28T05:41:42.535Z,103080.56
2023-02-28T05:44:09.401Z,103080.91
2023-02-28T05:46:36.334Z,103081.00
2023-02-28T05:49:03.552Z,103081.13
2023-02-28T05:51:30.707Z,103084.03
2023-02-28T05:54:02.453Z,103087.16
2023-02-28T05:56:29.494Z,103090.94
2023-02-28T05:58:56.427Z,103092.75
2023-02-28T06:01:23.915Z,103098.44
2023-02-28T06:03:50.857Z,103099.38
2023-02-28T06:06:19.954Z,103092.75
2023-02-28T06:08:46.991Z,103091.13
2023-02-28T06:11:13.950Z,103102.47
2023-02-28T06:13:40.835Z,103091.31
2023-02-28T06:16:08.260Z,103093.16
2023-02-28T06:18:35.064Z,103092.41
2023-02-28T06:21:02.095Z,103095.25
2023-02-28T06:23:28.829Z,103104.63
2023-02-28T06:25:59.335Z,103104.97
2023-02-28T06:28:26.823Z,103094.94
2023-02-28T06:30:53.819Z,103088.56
2023-02-28T06:33:20.729Z,103103.50
2023-02-28T06:35:48.115Z,103096.25
2023-02-28T06:38:14.910Z,103100.28
2023-02-28T06:40:41.661Z,103095.84
2023-02-28T06:43:08.511Z,103096.19
2023-02-28T06:45:35.560Z,103088.06
2023-02-28T06:48:02.487Z,103086.44
2023-02-28T06:50:30.846Z,103092.41
2023-02-28T06:52:57.658Z,103087.13
2023-02-28T06:55:24.624Z,103089.94
2023-02-28T06:57:51.899Z,103088.31
2023-02-28T07:00:19.708Z,103086.06
2023-02-28T07:02:46.996Z,103086.69
2023-02-28T07:05:14.038Z,103089.22
2023-02-28T07:07:44.787Z,103090.91
2023-02-28T07:10:12.664Z,103090.41
2023-02-28T07:12:39.549Z,103090.13
2023-02-28T07:15:07.072Z,103098.84
2023-02-28T07:17:34.170Z,103103.34
2023-02-28T07:20:01.012Z,103102.69
2023-02-28T07:22:27.877Z,103097.13
2023-02-28T07:24:54.959Z,103107.81
2023-02-28T07:27:25.069Z,103106.44
2023-02-28T07:29:51.861Z,103113.25
2023-02-28T07:32:19.909Z,103111.28
2023-02-28T07:34:46.946Z,103112.47
2023-02-28T07:37:13.890Z,103110.88
2023-02-28T07:39:42.993Z,103115.09
2023-02-28T07:42:12.520Z,103105.28
2023-02-28T07:44:41.765Z,103103.94
2023-02-28T07:47:10.252Z,103104.50
2023-02-28T07:49:38.120Z,103108.56
2023-02-28T07:52:06.309Z,103100.94
2023-02-28T07:54:33.564Z,103099.53
2023-02-28T07:57:01.047Z,103106.56
2023-02-28T07:59:30.061Z,103113.84
2023-02-28T08:02:00.012Z,103115.28
2023-02-28T08:04:27.562Z,103106.75
2023-02-28T08:06:55.676Z,103107.00
2023-02-28T08:09:23.923Z,103113.47
2023-02-28T08:11:51.195Z,103113.16
2023-02-28T08:14:20.484Z,103115.34
2023-02-28T08:16:47.390Z,103115.63
2023-02-28T08:19:14.719Z,103127.72
2023-02-28T08:21:41.652Z,103120.91
2023-02-28T08:24:09.210Z,103119.47
2023-02-28T08:26:36.193Z,103112.75
2023-02-28T08:29:03.287Z,103115.28
2023-02-28T08:31:30.734Z,103110.44
2023-02-28T08:34:00.227Z,103116.34
2023-02-28T08:36:30.038Z,103110.09
2023-02-28T08:38:58.326Z,103112.06
2023-02-28T08:41:25.436Z,103109.25
2023-02-28T08:43:52.808Z,103109.53
2023-02-28T08:46:20.018Z,103123.06
2023-02-28T08:48:47.117Z,103114.31
2023-02-28T08:51:18.308Z,103116.00
2023-02-28T08:53:45.913Z,103113.25
2023-02-28T08:56:14.118Z,103118.63
2023-02-28T08:58:41.747Z,103104.03
2023-02-28T09:01:10.508Z,103105.25
2023-02-28T09:03:37.564Z,103094.00
2023-02-28T09:06:06.187Z,103100.19
2023-02-28T09:08:33.759Z,103099.34
2023-02-28T09:11:09.561Z,103101.91
2023-02-28T09:13:37.237Z,103100.81
2023-02-28T09:16:05.934Z,103095.44
2023-02-28T09:18:36.556Z,103094.34
2023-02-28T09:21:04.794Z,103093.22
2023-02-28T09:23:32.183Z,103090.91
2023-02-28T09:25:59.336Z,103088.09
2023-02-28T09:28:26.440Z,103090.91
2023-02-28T09:30:57.937Z,103104.41
2023-02-28T09:33:25.677Z,103096.13
2023-02-28T09:35:59.082Z,103097.00
2023-02-28T09:38:26.408Z,103103.38
2023-02-28T09:41:00.148Z,103094.09
2023-02-28T09:43:29.742Z,103095.56
2023-02-28T09:46:08.358Z,103096.75
2023-02-28T09:48:41.049Z,103077.63
2023-02-28T09:51:11.762Z,103076.00
2023-02-28T09:53:40.970Z,103078.56
2023-02-28T09:56:11.591Z,103076.84
2023-02-28T09:58:39.458Z,103078.56
2023-02-28T10:01:09.483Z,103069.53
2023-02-28T10:03:40.853Z,103073.19
2023-02-28T10:06:13.820Z,103079.41
2023-02-28T10:08:46.318Z,103077.63
2023-02-28T10:11:16.838Z,103075.88
2023-02-28T10:13:53.687Z,103080.13
2023-02-28T10:16:24.039Z,103088.16
2023-02-28T10:18:52.445Z,103084.50
2023-02-28T10:21:22.767Z,103085.88
2023-02-28T10:23:49.977Z,103079.03
2023-02-28T10:26:18.952Z,103080.19
2023-02-28T10:28:46.712Z,103075.06
2023-02-28T10:31:17.911Z,103073.00
2023-02-28T10:33:45.381Z,103068.53
2023-02-28T10:36:15.522Z,103068.53
2023-02-28T10:38:42.651Z,103070.16
2023-02-28T10:41:11.098Z,103075.41
2023-02-28T10:43:44.068Z,103069.56
2023-02-28T10:46:19.601Z,103069.03
2023-02-28T10:48:57.190Z,103066.75
2023-02-28T10:51:24.478Z,103071.34
2023-02-28T10:54:00.975Z,103064.66
2023-02-28T10:56:29.371Z,103061.09
2023-02-28T10:58:57.098Z,103055.78
2023-02-28T11:01:26.023Z,103058.09
2023-02-28T11:03:55.353Z,103053.06
2023-02-28T11:06:24.489Z,103053.66
2023-02-28T11:08:53.354Z,103052.88
2023-02-28T11:11:21.890Z,103048.69
2023-02-28T11:13:51.490Z,103049.53
2023-02-28T11:16:18.495Z,103050.13
2023-02-28T11:18:50.149Z,103049.84
2023-02-28T11:21:19.809Z,103053.53
2023-02-28T11:23:47.106Z,103041.19
2023-02-28T11:26:14.434Z,103027.97
2023-02-28T11:28:42.953Z,103030.53
2023-02-28T11:31:13.319Z,103022.97
2023-02-28T11:33:43.603Z,103015.03
2023-02-28T11:36:14.162Z,103011.09
2023-02-28T11:38:41.815Z,102995.03
2023-02-28T11:41:16.324Z,102974.19
2023-02-28T11:43:46.636Z,102969.94
2023-02-28T11:46:17.054Z,102974.97
2023-02-28T11:48:48.665Z,102976.63
2023-02-28T11:51:18.785Z,102999.59
2023-02-28T11:53:47.253Z,103008.88
2023-02-28T11:56:20.865Z,103015.63
2023-02-28T11:58:55.517Z,103016.97
2023-02-28T12:01:26.222Z,103015.56
2023-02-28T12:03:56.725Z,103013.25
2023-02-28T12:06:27.756Z,103008.47
2023-02-28T12:08:55.606Z,102996.34
2023-02-28T12:11:26.003Z,102996.59
2023-02-28T12:13:59.854Z,102990.97
2023-02-28T12:16:29.291Z,102992.34
2023-02-28T12:18:59.738Z,102983.34
2023-02-28T12:21:32.111Z,102977.38
2023-02-28T12:23:59.799Z,102978.75
2023-02-28T12:26:30.061Z,102966.34
2023-02-28T12:29:05.771Z,102961.81
2023-02-28T12:31:38.053Z,102951.97
2023-02-28T12:34:09.597Z,102946.03
2023-02-28T12:36:38.551Z,102933.34
2023-02-28T12:39:09.986Z,102921.78
2023-02-28T12:41:42.863Z,102922.56
2023-02-28T12:44:13.601Z,102916.63
2023-02-28T12:46:46.822Z,102912.09
2023-02-28T12:49:17.555Z,102916.88
2023-02-28T12:51:45.784Z,102911.75
2023-02-28T12:54:14.461Z,102921.81
2023-02-28T12:56:44.800Z,102913.03
2023-02-28T12:59:15.309Z,102917.22
2023-02-28T13:01:45.487Z,102912.97
2023-02-28T13:04:15.753Z,102906.75
2023-02-28T13:06:45.879Z,102896.91
2023-02-28T13:09:16.755Z,102898.25
2023-02-28T13:11:46.490Z,102888.75
2023-02-28T13:14:19.471Z,102889.75
2023-02-28T13:16:49.415Z,102874.31
2023-02-28T13:19:19.601Z,102873.13
2023-02-28T13:21:47.082Z,102874.47
2023-02-28T13:24:34.517Z,102871.34
2023-02-28T13:27:02.110Z,102856.72
2023-02-28T13:29:36.252Z,102858.69
2023-02-28T13:32:07.904Z,102858.09
2023-02-28T13:34:36.783Z,102852.72
2023-02-28T13:37:07.035Z,102853.50
2023-02-28T13:39:36.397Z,102843.41
2023-02-28T13:42:06.862Z,102835.00
2023-02-28T13:44:56.095Z,102834.38
2023-02-28T13:47:26.033Z,102835.75
2023-02-28T13:49:53.491Z,102835.41
2023-02-28T13:52:22.584Z,102840.69
2023-02-28T13:54:52.960Z,102838.41
2023-02-28T13:57:27.035Z,102838.50
2023-02-28T13:59:59.897Z,102834.13
2023-02-28T14:02:30.257Z,102841.38
2023-02-28T14:05:00.440Z,102838.25
2023-02-28T14:07:31.131Z,102849.13
2023-02-28T14:10:06.950Z,102837.91
2023-02-28T14:12:37.325Z,102835.59
2023-02-28T14:15:07.042Z,102831.13
2023-02-28T14:17:34.252Z,102838.91
2023-02-28T14:20:02.240Z,102825.75
2023-02-28T14:22:32.350Z,102823.47
2023-02-28T14:25:03.427Z,102819.78
2023-02-28T14:27:36.481Z,102827.34
2023-02-28T14:30:08.393Z,102819.44
2023-02-28T14:32:43.359Z,102810.19
2023-02-28T14:35:11.938Z,102827.50
2023-02-28T14:37:41.620Z,102816.88
2023-02-28T14:40:11.724Z,102818.72
2023-02-28T14:42:39.420Z,102795.16
2023-02-28T14:45:07.842Z,102801.38
2023-02-28T14:47:36.641Z,102801.47
2023-02-28T14:50:05.695Z,102790.03
2023-02-28T14:52:34.032Z,102794.63
2023-02-28T14:55:03.063Z,102788.84
2023-02-28T14:57:33.143Z,102781.94
2023-02-28T15:00:05.055Z,102784.91
2023-02-28T15:02:35.370Z,102791.41
2023-02-28T15:05:11.925Z,102783.91
2023-02-28T15:07:39.150Z,102784.00
2023-02-28T15:10:09.128Z,102781.25
2023-02-28T15:12:36.656Z,102778.50
2023-02-28T15:15:04.166Z,102781.28
2023-02-28T15:17:31.368Z,102771.94
2023-02-28T15:19:58.748Z,102784.38
2023-02-28T15:22:30.358Z,102771.56
2023-02-28T15:24:58.048Z,102769.38
2023-02-28T15:27:28.162Z,102768.59
2023-02-28T15:29:56.300Z,102779.03
2023-02-28T15:32:26.992Z,102786.06
2023-02-28T15:34:55.013Z,102778.22
2023-02-28T15:37:25.575Z,102792.00
2023-02-28T15:39:55.290Z,102776.84
2023-02-28T15:42:23.891Z,102778.53
2023-02-28T15:44:51.016Z,102770.94
2023-02-28T15:47:21.093Z,102783.03
2023-02-28T15:49:48.427Z,102771.81
2023-02-28T15:52:17.503Z,102771.81
2023-02-28T15:54:47.340Z,102779.38
2023-02-28T15:57:16.363Z,102783.31
2023-02-28T15:59:50.411Z,102789.78
2023-02-28T16:02:19.926Z,102780.78
2023-02-28T16:04:50.087Z,102786.66
2023-02-28T16:07:17.304Z,102781.28
2023-02-28T16:09:44.227Z,102777.63
2023-02-28T16:12:14.894Z,102780.72
2023-02-28T16:14:42.221Z,102780.72
2023-02-28T16:17:18.237Z,102771.50
2023-02-28T16:19:45.116Z,102781.34
2023-02-28T16:22:12.129Z,102775.22
2023-02-28T16:24:39.983Z,102780.03
2023-02-28T16:27:08.151Z,102788.75
2023-02-28T16:29:37.849Z,102794.44
2023-02-28T16:32:06.527Z,102781.81
2023-02-28T16:34:33.939Z,102796.19
2023-02-28T16:37:01.305Z,102791.16
2023-02-28T16:39:28.466Z,102804.09
2023-02-28T16:41:55.844Z,102805.78
2023-02-28T16:44:27.876Z,102799.06
2023-02-28T16:46:55.040Z,102802.97
2023-02-28T16:49:22.547Z,102805.28
2023-02-28T16:51:49.922Z,102793.16
2023-02-28T16:54:17.456Z,102797.09
2023-02-28T16:56:46.253Z,102791.72
2023-02-28T16:59:16.670Z,102793.72
2023-02-28T17:01:43.851Z,102795.09
2023-02-28T17:04:12.072Z,102796.19
2023-02-28T17:06:39.198Z,102792.50
2023-02-28T17:09:06.226Z,102800.38
2023-02-28T17:11:33.962Z,102802.59
2023-02-28T17:14:00.962Z,102811.00
2023-02-28T17:16:31.085Z,102816.91
2023-02-28T17:19:00.209Z,102815.22
2023-02-28T17:21:27.266Z,102816.88
2023-02-28T17:23:54.276Z,102814.84
2023-02-28T17:26:22.403Z,102821.91
2023-02-28T17:28:50.301Z,102832.81
2023-02-28T17:31:17.444Z,102826.09
2023-02-28T17:33:45.069Z,102819.03
2023-02-28T17:36:16.243Z,102819.56
2023-02-28T17:38:43.435Z,102820.16
2023-02-28T17:41:11.829Z,102818.97
2023-02-28T17:43:39.700Z,102813.91
2023-02-28T17:46:08.016Z,102814.16
2023-02-28T17:48:35.369Z,102817.25
2023-02-28T17:51:02.723Z,102824.22
2023-02-28T17:53:30.869Z,102826.72
2023-02-28T17:55:58.561Z,102829.78
2023-02-28T17:58:27.004Z,102826.66
2023-02-28T18:00:55.706Z,102838.69
2023-02-28T18:03:23.362Z,102832.75
2023-02-28T18:05:50.714Z,102826.28
2023-02-28T18:08:18.030Z,102836.66
2023-02-28T18:10:44.987Z,102827.94
2023-02-28T18:13:13.909Z,102841.13
2023-02-28T18:15:41.185Z,102837.75
2023-02-28T18:18:08.669Z,102828.16
2023-02-28T18:20:39.656Z,102834.59
2023-02-28T18:23:07.516Z,102835.91
2023-02-28T18:25:34.742Z,102832.78
2023-02-28T18:28:02.581Z,102835.00
2023-02-28T18:30:52.662Z,102831.63
2023-02-28T18:33:20.649Z,102834.59
2023-02-28T18:35:55.907Z,102837.06
2023-02-28T18:38:23.216Z,102836.41
2023-02-28T18:40:53.499Z,102831.91
2023-02-28T18:43:20.504Z,102835.22
2023-02-28T18:45:47.706Z,102838.31
2023-02-28T18:48:15.710Z,102842.47
2023-02-28T18:50:42.869Z,102838.22
2023-02-28T18:53:09.870Z,102844.09
2023-02-28T18:55:37.025Z,102853.28
2023-02-28T18:58:04.996Z,102849.06
2023-02-28T19:00:32.524Z,102854.13
2023-02-28T19:02:59.500Z,102855.31
2023-02-28T19:05:28.220Z,102858.72
2023-02-28T19:07:55.109Z,102855.13
2023-02-28T19:10:23.384Z,102870.88
2023-02-28T19:12:52.890Z,102858.59
2023-02-28T19:15:20.850Z,102862.31
2023-02-28T19:17:47.761Z,102860.47
2023-02-28T19:20:14.883Z,102873.19
2023-02-28T19:22:42.844Z,102870.47
2023-02-28T19:25:10.176Z,102878.69
2023-02-28T19:27:37.163Z,102873.13
2023-02-28T19:30:05.007Z,102872.34
2023-02-28T19:32:32.236Z,102880.81
2023-02-28T19:34:59.327Z,102878.94
2023-02-28T19:37:26.243Z,102880.94
2023-02-28T19:39:57.094Z,102884.94
2023-02-28T19:42:24.580Z,102882.44
2023-02-28T19:44:51.704Z,102883.34
2023-02-28T19:47:19.627Z,102876.94
2023-02-28T19:49:46.979Z,102884.81
2023-02-28T19:52:15.699Z,102891.34
2023-02-28T19:54:45.077Z,102890.84
2023-02-28T19:57:13.563Z,102881.03
2023-02-28T19:59:41.696Z,102887.84
2023-02-28T20:02:12.780Z,102894.63
2023-02-28T20:04:40.960Z,102899.47
2023-02-28T20:07:09.409Z,102898.09
2023-02-28T20:09:38.046Z,102893.34
2023-02-28T20:12:07.161Z,102902.13
2023-02-28T20:14:36.616Z,102897.06
2023-02-28T20:17:05.997Z,102888.69
2023-02-28T20:19:32.931Z,102896.31
2023-02-28T20:22:01.231Z,102893.81
2023-02-28T20:24:28.211Z,102895.25
2023-02-28T20:26:55.565Z,102897.50
2023-02-28T20:29:22.551Z,102906.25
2023-02-28T20:31:49.786Z,102901.78
2023-02-28T20:34:20.576Z,102912.53
2023-02-28T20:36:50.460Z,102909.16
2023-02-28T20:39:17.733Z,102915.09
2023-02-28T20:41:44.757Z,102917.41
2023-02-28T20:44:13.414Z,102913.19
2023-02-28T20:46:42.586Z,102914.63
2023-02-28T20:49:10.259Z,102920.56
2023-02-28T20:51:40.539Z,102930.41
2023-02-28T20:54:07.937Z,102928.44
2023-02-28T20:56:35.191Z,102922.81
2023-02-28T20:59:02.279Z,102930.16
2023-02-28T21:01:30.201Z,102936.09
2023-02-28T21:03:58.819Z,102928.28
2023-02-28T21:06:27.010Z,102930.53
2023-02-28T21:08:54.285Z,102934.75
2023-02-28T21:11:24.710Z,102936.47
2023-02-28T21:13:52.163Z,102937.91
2023-02-28T21:16:20.937Z,102945.81
2023-02-28T21:18:48.395Z,102944.13
2023-02-28T21:21:16.687Z,102940.22
2023-02-28T21:23:46.520Z,102942.47
2023-02-28T21:26:14.956Z,102943.91
2023-02-28T21:28:44.343Z,102947.28
2023-02-28T21:31:16.603Z,102946.78
2023-02-28T21:33:44.310Z,102949.03
2023-02-28T21:36:12.882Z,102947.63
2023-02-28T21:38:40.247Z,102953.84
2023-02-28T21:41:08.173Z,102954.41
2023-02-28T21:43:35.954Z,102952.19
2023-02-28T21:46:04.619Z,102954.75
2023-02-28T21:48:35.860Z,102966.56
2023-02-28T21:51:05.255Z,102964.88
2023-02-28T21:53:32.722Z,102971.09
2023-02-28T21:56:01.899Z,102977.84
2023-02-28T21:58:28.784Z,102975.88
2023-02-28T22:00:55.818Z,102984.06
2023-02-28T22:03:22.676Z,102981.75
2023-02-28T22:05:49.696Z,102976.69
2023-02-28T22:08:18.958Z,102983.44
2023-02-28T22:10:45.904Z,102987.94
2023-02-28T22:13:13.513Z,102988.53
2023-02-28T22:15:40.445Z,102990.72
2023-02-28T22:18:08.030Z,102996.41
2023-02-28T22:20:35.050Z,102989.91
2023-02-28T22:23:01.956Z,102994.97
2023-02-28T22:25:29.225Z,102987.91
2023-02-28T22:27:56.138Z,102980.56
2023-02-28T22:30:24.067Z,102983.38
2023-02-28T22:32:51.275Z,102983.59
2023-02-28T22:35:19.729Z,102983.28
2023-02-28T22:37:48.097Z,102986.63
2023-02-28T22:40:15.175Z,102979.84
2023-02-28T22:42:44.323Z,102980.97
2023-02-28T22:45:11.854Z,102984.31
2023-02-28T22:47:41.177Z,102977.28
2023-02-28T22:50:08.777Z,102976.69
2023-02-28T22:52:35.724Z,102976.34
2023-02-28T22:55:02.606Z,102976.03
2023-02-28T22:57:31.999Z,102980.22
2023-02-28T22:59:58.921Z,102974.88
2023-02-28T23:02:25.908Z,102975.94
2023-02-28T23:04:58.090Z,102980.72
2023-02-28T23:07:25.260Z,102984.06
2023-02-28T23:09:53.093Z,102981.78
2023-02-28T23:12:19.939Z,102981.22
2023-02-28T23:14:46.828Z,102982.06
2023-02-28T23:17:13.695Z,102978.41
2023-02-28T23:19:40.708Z,102976.47
2023-02-28T23:22:07.692Z,102975.34
2023-02-28T23:24:34.921Z,102986.34
2023-02-28T23:27:03.954Z,102979.34
2023-02-28T23:29:31.985Z,102976.28
2023-02-28T23:31:59.117Z,102987.00
2023-02-28T23:34:28.261Z,102981.97
2023-02-28T23:36:55.518Z,102982.81
2023-02-28T23:39:22.875Z,102969.63
2023-02-28T23:41:49.905Z,102993.56
2023-02-28T23:44:17.284Z,102989.66
2023-02-28T23:46:45.396Z,102991.06
2023-02-28T23:49:12.637Z,102989.38
2023-02-28T23:51:39.712Z,102991.06
2023-02-28T23:54:06.998Z,102987.09
2023-02-28T23:56:35.197Z,102997.50
2023-02-28T23:59:02.196Z,102990.50
